sensor_id;sensor_type;location;lat;lon;timestamp;P1;P2;P0
62054;PMS5003;48653;51.742;-1.256;2023-04-26T00:01:52;16;13;
62054;PMS5003;48653;51.742;-1.256;2023-04-26T00:04:18;15;12;
62054;PMS5003;48653;51.742;-1.256;2023-04-26T00:06:43;16;15;
62054;PMS5003;48653;51.742;-1.256;2023-04-26T00:09:08;15;15;
62054;PMS5003;48653;51.742;-1.256;2023-04-26T00:11:34;14;14;
62054;PMS5003;48653;51.742;-1.256;2023-04-26T00:13:59;20;18;
62054;PMS5003;48653;51.742;-1.256;2023-04-26T00:16:25;18;15;
62054;PMS5003;48653;51.742;-1.256;2023-04-26T00:18:50;18;13;
62054;PMS5003;48653;51.742;-1.256;2023-04-26T00:21:15;16;10;
62054;PMS5003;48653;51.742;-1.256;2023-04-26T00:23:41;14;14;
62054;PMS5003;48653;51.742;-1.256;2023-04-26T00:26:06;18;15;
62054;PMS5003;48653;51.742;-1.256;2023-04-26T00:28:31;17;15;
62054;PMS5003;48653;51.742;-1.256;2023-04-26T00:30:57;15;13;
62054;PMS5003;48653;51.742;-1.256;2023-04-26T00:33:22;16;14;
62054;PMS5003;48653;51.742;-1.256;2023-04-26T00:35:47;17;15;
62054;PMS5003;48653;51.742;-1.256;2023-04-26T00:38:13;14;13;
62054;PMS5003;48653;51.742;-1.256;2023-04-26T00:40:38;20;14;
62054;PMS5003;48653;51.742;-1.256;2023-04-26T00:43:04;12;11;
62054;PMS5003;48653;51.742;-1.256;2023-04-26T00:45:29;15;15;
62054;PMS5003;48653;51.742;-1.256;2023-04-26T00:47:54;11;11;
62054;PMS5003;48653;51.742;-1.256;2023-04-26T00:50:20;12;11;
62054;PMS5003;48653;51.742;-1.256;2023-04-26T00:52:45;18;15;
62054;PMS5003;48653;51.742;-1.256;2023-04-26T00:55:11;14;11;
62054;PMS5003;48653;51.742;-1.256;2023-04-26T00:57:38;13;13;
62054;PMS5003;48653;51.742;-1.256;2023-04-26T01:00:02;15;12;
62054;PMS5003;48653;51.742;-1.256;2023-04-26T01:02:28;13;13;
62054;PMS5003;48653;51.742;-1.256;2023-04-26T01:04:53;15;13;
62054;PMS5003;48653;51.742;-1.256;2023-04-26T01:07:19;16;14;
62054;PMS5003;48653;51.742;-1.256;2023-04-26T01:09:44;11;11;
62054;PMS5003;48653;51.742;-1.256;2023-04-26T01:12:10;14;11;
62054;PMS5003;48653;51.742;-1.256;2023-04-26T01:14:35;21;17;
62054;PMS5003;48653;51.742;-1.256;2023-04-26T01:17:00;13;12;
62054;PMS5003;48653;51.742;-1.256;2023-04-26T01:19:26;13;12;
62054;PMS5003;48653;51.742;-1.256;2023-04-26T01:21:51;15;14;
62054;PMS5003;48653;51.742;-1.256;2023-04-26T01:24:16;16;12;
62054;PMS5003;48653;51.742;-1.256;2023-04-26T01:26:41;16;13;
62054;PMS5003;48653;51.742;-1.256;2023-04-26T01:31:32;14;13;
62054;PMS5003;48653;51.742;-1.256;2023-04-26T01:33:58;14;14;
62054;PMS5003;48653;51.742;-1.256;2023-04-26T01:36:23;14;12;
62054;PMS5003;48653;51.742;-1.256;2023-04-26T01:38:48;16;12;
62054;PMS5003;48653;51.742;-1.256;2023-04-26T01:41:14;13;10;
62054;PMS5003;48653;51.742;-1.256;2023-04-26T01:43:39;11;11;
62054;PMS5003;48653;51.742;-1.256;2023-04-26T01:46:04;11;11;
62054;PMS5003;48653;51.742;-1.256;2023-04-26T01:48:30;13;12;
62054;PMS5003;48653;51.742;-1.256;2023-04-26T01:50:55;13;11;
62054;PMS5003;48653;51.742;-1.256;2023-04-26T01:53:20;13;10;
62054;PMS5003;48653;51.742;-1.256;2023-04-26T01:55:46;14;14;
62054;PMS5003;48653;51.742;-1.256;2023-04-26T01:58:12;15;11;
62054;PMS5003;48653;51.742;-1.256;2023-04-26T02:00:37;13;11;
62054;PMS5003;48653;51.742;-1.256;2023-04-26T02:03:02;16;13;
62054;PMS5003;48653;51.742;-1.256;2023-04-26T02:05:27;14;12;
62054;PMS5003;48653;51.742;-1.256;2023-04-26T02:07:53;14;14;
62054;PMS5003;48653;51.742;-1.256;2023-04-26T02:10:18;15;11;
62054;PMS5003;48653;51.742;-1.256;2023-04-26T02:12:44;13;12;
62054;PMS5003;48653;51.742;-1.256;2023-04-26T02:15:10;16;13;
62054;PMS5003;48653;51.742;-1.256;2023-04-26T02:17:34;12;11;
62054;PMS5003;48653;51.742;-1.256;2023-04-26T02:20:00;15;11;
62054;PMS5003;48653;51.742;-1.256;2023-04-26T02:22:26;17;13;
62054;PMS5003;48653;51.742;-1.256;2023-04-26T02:24:51;15;13;
62054;PMS5003;48653;51.742;-1.256;2023-04-26T02:27:16;15;13;
62054;PMS5003;48653;51.742;-1.256;2023-04-26T02:29:41;15;13;
62054;PMS5003;48653;51.742;-1.256;2023-04-26T02:32:06;17;14;
62054;PMS5003;48653;51.742;-1.256;2023-04-26T02:34:32;11;11;
62054;PMS5003;48653;51.742;-1.256;2023-04-26T02:36:57;17;13;
62054;PMS5003;48653;51.742;-1.256;2023-04-26T02:39:22;16;12;
62054;PMS5003;48653;51.742;-1.256;2023-04-26T02:41:48;11;10;
62054;PMS5003;48653;51.742;-1.256;2023-04-26T02:44:13;11;9;
62054;PMS5003;48653;51.742;-1.256;2023-04-26T02:46:38;11;11;
62054;PMS5003;48653;51.742;-1.256;2023-04-26T02:49:04;14;13;
62054;PMS5003;48653;51.742;-1.256;2023-04-26T02:51:29;14;12;
62054;PMS5003;48653;51.742;-1.256;2023-04-26T02:53:54;15;13;
62054;PMS5003;48653;51.742;-1.256;2023-04-26T02:56:19;13;13;
62054;PMS5003;48653;51.742;-1.256;2023-04-26T02:58:44;15;12;
62054;PMS5003;48653;51.742;-1.256;2023-04-26T03:01:10;14;12;
62054;PMS5003;48653;51.742;-1.256;2023-04-26T03:03:35;18;13;
62054;PMS5003;48653;51.742;-1.256;2023-04-26T03:06:01;16;15;
62054;PMS5003;48653;51.742;-1.256;2023-04-26T03:08:27;15;12;
62054;PMS5003;48653;51.742;-1.256;2023-04-26T03:10:52;12;12;
62054;PMS5003;48653;51.742;-1.256;2023-04-26T03:13:17;13;11;
62054;PMS5003;48653;51.742;-1.256;2023-04-26T03:15:43;18;14;
62054;PMS5003;48653;51.742;-1.256;2023-04-26T03:18:07;14;14;
62054;PMS5003;48653;51.742;-1.256;2023-04-26T03:20:33;15;13;
62054;PMS5003;48653;51.742;-1.256;2023-04-26T03:22:58;19;15;
62054;PMS5003;48653;51.742;-1.256;2023-04-26T03:25:24;13;12;
62054;PMS5003;48653;51.742;-1.256;2023-04-26T03:27:50;14;12;
62054;PMS5003;48653;51.742;-1.256;2023-04-26T03:30:15;14;10;
62054;PMS5003;48653;51.742;-1.256;2023-04-26T03:32:41;14;12;
62054;PMS5003;48653;51.742;-1.256;2023-04-26T03:35:06;16;15;
62054;PMS5003;48653;51.742;-1.256;2023-04-26T03:37:31;18;14;
62054;PMS5003;48653;51.742;-1.256;2023-04-26T03:39:57;13;12;
62054;PMS5003;48653;51.742;-1.256;2023-04-26T03:42:22;9;8;
62054;PMS5003;48653;51.742;-1.256;2023-04-26T03:44:47;16;11;
62054;PMS5003;48653;51.742;-1.256;2023-04-26T03:47:13;13;12;
62054;PMS5003;48653;51.742;-1.256;2023-04-26T03:49:38;15;15;
62054;PMS5003;48653;51.742;-1.256;2023-04-26T03:52:03;12;10;
62054;PMS5003;48653;51.742;-1.256;2023-04-26T03:54:28;16;12;
62054;PMS5003;48653;51.742;-1.256;2023-04-26T03:56:54;15;14;
62054;PMS5003;48653;51.742;-1.256;2023-04-26T03:59:19;12;11;
62054;PMS5003;48653;51.742;-1.256;2023-04-26T04:01:44;11;10;
62054;PMS5003;48653;51.742;-1.256;2023-04-26T04:04:10;13;12;
62054;PMS5003;48653;51.742;-1.256;2023-04-26T04:06:35;13;10;
62054;PMS5003;48653;51.742;-1.256;2023-04-26T04:09:01;13;13;
62054;PMS5003;48653;51.742;-1.256;2023-04-26T04:11:26;19;15;
62054;PMS5003;48653;51.742;-1.256;2023-04-26T04:13:51;12;12;
62054;PMS5003;48653;51.742;-1.256;2023-04-26T04:16:17;12;10;
62054;PMS5003;48653;51.742;-1.256;2023-04-26T04:18:42;13;12;
62054;PMS5003;48653;51.742;-1.256;2023-04-26T04:21:07;11;10;
62054;PMS5003;48653;51.742;-1.256;2023-04-26T04:23:32;12;10;
62054;PMS5003;48653;51.742;-1.256;2023-04-26T04:25:57;9;9;
62054;PMS5003;48653;51.742;-1.256;2023-04-26T04:28:23;17;12;
62054;PMS5003;48653;51.742;-1.256;2023-04-26T04:30:48;13;9;
62054;PMS5003;48653;51.742;-1.256;2023-04-26T04:33:13;13;11;
62054;PMS5003;48653;51.742;-1.256;2023-04-26T04:35:39;13;12;
62054;PMS5003;48653;51.742;-1.256;2023-04-26T04:38:04;11;9;
62054;PMS5003;48653;51.742;-1.256;2023-04-26T04:40:29;10;8;
62054;PMS5003;48653;51.742;-1.256;2023-04-26T04:42:55;11;11;
62054;PMS5003;48653;51.742;-1.256;2023-04-26T04:45:21;14;10;
62054;PMS5003;48653;51.742;-1.256;2023-04-26T04:47:47;17;15;
62054;PMS5003;48653;51.742;-1.256;2023-04-26T04:50:12;11;11;
62054;PMS5003;48653;51.742;-1.256;2023-04-26T04:52:37;19;17;
62054;PMS5003;48653;51.742;-1.256;2023-04-26T04:55:04;21;19;
62054;PMS5003;48653;51.742;-1.256;2023-04-26T04:57:29;14;13;
62054;PMS5003;48653;51.742;-1.256;2023-04-26T04:59:55;10;10;
62054;PMS5003;48653;51.742;-1.256;2023-04-26T05:02:20;12;8;
62054;PMS5003;48653;51.742;-1.256;2023-04-26T05:04:45;9;8;
62054;PMS5003;48653;51.742;-1.256;2023-04-26T05:07:11;16;12;
62054;PMS5003;48653;51.742;-1.256;2023-04-26T05:09:36;11;10;
62054;PMS5003;48653;51.742;-1.256;2023-04-26T05:12:01;16;11;
62054;PMS5003;48653;51.742;-1.256;2023-04-26T05:14:28;13;10;
62054;PMS5003;48653;51.742;-1.256;2023-04-26T05:16:52;13;12;
62054;PMS5003;48653;51.742;-1.256;2023-04-26T05:19:17;18;14;
62054;PMS5003;48653;51.742;-1.256;2023-04-26T05:21:43;14;12;
62054;PMS5003;48653;51.742;-1.256;2023-04-26T05:24:08;11;10;
62054;PMS5003;48653;51.742;-1.256;2023-04-26T05:26:33;15;12;
62054;PMS5003;48653;51.742;-1.256;2023-04-26T05:28:58;16;10;
62054;PMS5003;48653;51.742;-1.256;2023-04-26T05:31:24;18;13;
62054;PMS5003;48653;51.742;-1.256;2023-04-26T05:33:49;12;9;
62054;PMS5003;48653;51.742;-1.256;2023-04-26T05:36:15;16;12;
62054;PMS5003;48653;51.742;-1.256;2023-04-26T05:38:40;16;12;
62054;PMS5003;48653;51.742;-1.256;2023-04-26T05:41:06;9;8;
62054;PMS5003;48653;51.742;-1.256;2023-04-26T05:43:31;15;11;
62054;PMS5003;48653;51.742;-1.256;2023-04-26T05:45:57;15;10;
62054;PMS5003;48653;51.742;-1.256;2023-04-26T05:48:23;12;12;
62054;PMS5003;48653;51.742;-1.256;2023-04-26T05:50:47;11;11;
62054;PMS5003;48653;51.742;-1.256;2023-04-26T05:53:12;17;13;
62054;PMS5003;48653;51.742;-1.256;2023-04-26T05:55:38;15;11;
62054;PMS5003;48653;51.742;-1.256;2023-04-26T05:58:03;12;9;
62054;PMS5003;48653;51.742;-1.256;2023-04-26T06:00:28;13;10;
62054;PMS5003;48653;51.742;-1.256;2023-04-26T06:02:54;10;10;
62054;PMS5003;48653;51.742;-1.256;2023-04-26T06:05:20;15;12;
62054;PMS5003;48653;51.742;-1.256;2023-04-26T06:07:46;7;7;
62054;PMS5003;48653;51.742;-1.256;2023-04-26T06:10:11;11;9;
62054;PMS5003;48653;51.742;-1.256;2023-04-26T06:12:37;10;10;
62054;PMS5003;48653;51.742;-1.256;2023-04-26T06:15:03;14;9;
62054;PMS5003;48653;51.742;-1.256;2023-04-26T06:17:28;11;11;
62054;PMS5003;48653;51.742;-1.256;2023-04-26T06:19:53;10;8;
62054;PMS5003;48653;51.742;-1.256;2023-04-26T06:22:19;10;8;
62054;PMS5003;48653;51.742;-1.256;2023-04-26T06:24:44;13;12;
62054;PMS5003;48653;51.742;-1.256;2023-04-26T06:27:09;8;8;
62054;PMS5003;48653;51.742;-1.256;2023-04-26T06:29:34;9;9;
62054;PMS5003;48653;51.742;-1.256;2023-04-26T06:32:00;10;8;
62054;PMS5003;48653;51.742;-1.256;2023-04-26T06:34:25;17;12;
62054;PMS5003;48653;51.742;-1.256;2023-04-26T06:36:50;12;10;
62054;PMS5003;48653;51.742;-1.256;2023-04-26T06:39:15;10;8;
62054;PMS5003;48653;51.742;-1.256;2023-04-26T06:41:40;14;12;
62054;PMS5003;48653;51.742;-1.256;2023-04-26T06:44:05;11;9;
62054;PMS5003;48653;51.742;-1.256;2023-04-26T06:46:31;10;9;
62054;PMS5003;48653;51.742;-1.256;2023-04-26T06:48:57;11;7;
62054;PMS5003;48653;51.742;-1.256;2023-04-26T06:51:22;9;7;
62054;PMS5003;48653;51.742;-1.256;2023-04-26T06:53:47;10;7;
62054;PMS5003;48653;51.742;-1.256;2023-04-26T06:56:13;10;7;
62054;PMS5003;48653;51.742;-1.256;2023-04-26T06:58:38;12;10;
62054;PMS5003;48653;51.742;-1.256;2023-04-26T07:01:04;10;7;
62054;PMS5003;48653;51.742;-1.256;2023-04-26T07:03:30;8;7;
62054;PMS5003;48653;51.742;-1.256;2023-04-26T07:05:55;10;7;
62054;PMS5003;48653;51.742;-1.256;2023-04-26T07:08:20;9;8;
62054;PMS5003;48653;51.742;-1.256;2023-04-26T07:10:46;8;8;
62054;PMS5003;48653;51.742;-1.256;2023-04-26T07:13:11;9;8;
62054;PMS5003;48653;51.742;-1.256;2023-04-26T07:15:37;8;8;
62054;PMS5003;48653;51.742;-1.256;2023-04-26T07:18:02;8;7;
62054;PMS5003;48653;51.742;-1.256;2023-04-26T07:20:27;9;6;
62054;PMS5003;48653;51.742;-1.256;2023-04-26T07:22:53;7;6;
62054;PMS5003;48653;51.742;-1.256;2023-04-26T07:25:18;7;7;
62054;PMS5003;48653;51.742;-1.256;2023-04-26T07:27:43;7;5;
62054;PMS5003;48653;51.742;-1.256;2023-04-26T07:30:08;9;8;
62054;PMS5003;48653;51.742;-1.256;2023-04-26T07:32:34;7;6;
62054;PMS5003;48653;51.742;-1.256;2023-04-26T07:34:59;7;6;
62054;PMS5003;48653;51.742;-1.256;2023-04-26T07:37:24;5;5;
62054;PMS5003;48653;51.742;-1.256;2023-04-26T07:39:49;9;9;
62054;PMS5003;48653;51.742;-1.256;2023-04-26T07:42:15;8;7;
62054;PMS5003;48653;51.742;-1.256;2023-04-26T07:44:40;7;7;
62054;PMS5003;48653;51.742;-1.256;2023-04-26T07:47:10;10;7;
62054;PMS5003;48653;51.742;-1.256;2023-04-26T07:49:30;7;6;
62054;PMS5003;48653;51.742;-1.256;2023-04-26T07:51:56;8;6;
62054;PMS5003;48653;51.742;-1.256;2023-04-26T07:54:21;8;8;
62054;PMS5003;48653;51.742;-1.256;2023-04-26T07:56:46;7;7;
62054;PMS5003;48653;51.742;-1.256;2023-04-26T07:59:12;5;5;
62054;PMS5003;48653;51.742;-1.256;2023-04-26T08:01:37;8;6;
62054;PMS5003;48653;51.742;-1.256;2023-04-26T08:04:03;9;7;
62054;PMS5003;48653;51.742;-1.256;2023-04-26T08:06:28;7;5;
62054;PMS5003;48653;51.742;-1.256;2023-04-26T08:08:53;6;6;
62054;PMS5003;48653;51.742;-1.256;2023-04-26T08:11:18;7;4;
62054;PMS5003;48653;51.742;-1.256;2023-04-26T08:13:44;4;4;
62054;PMS5003;48653;51.742;-1.256;2023-04-26T08:16:09;7;6;
62054;PMS5003;48653;51.742;-1.256;2023-04-26T08:18:34;5;5;
62054;PMS5003;48653;51.742;-1.256;2023-04-26T08:20:59;7;7;
62054;PMS5003;48653;51.742;-1.256;2023-04-26T08:23:24;9;6;
62054;PMS5003;48653;51.742;-1.256;2023-04-26T08:25:49;8;6;
62054;PMS5003;48653;51.742;-1.256;2023-04-26T08:28:14;8;6;
62054;PMS5003;48653;51.742;-1.256;2023-04-26T08:30:40;4;4;
62054;PMS5003;48653;51.742;-1.256;2023-04-26T08:33:05;9;6;
62054;PMS5003;48653;51.742;-1.256;2023-04-26T08:35:30;5;5;
62054;PMS5003;48653;51.742;-1.256;2023-04-26T08:37:55;6;6;
62054;PMS5003;48653;51.742;-1.256;2023-04-26T08:40:21;9;5;
62054;PMS5003;48653;51.742;-1.256;2023-04-26T08:42:45;5;5;
62054;PMS5003;48653;51.742;-1.256;2023-04-26T08:45:10;7;6;
62054;PMS5003;48653;51.742;-1.256;2023-04-26T08:47:37;13;6;
62054;PMS5003;48653;51.742;-1.256;2023-04-26T08:50:02;8;6;
62054;PMS5003;48653;51.742;-1.256;2023-04-26T08:52:26;3;3;
62054;PMS5003;48653;51.742;-1.256;2023-04-26T08:54:51;7;5;
62054;PMS5003;48653;51.742;-1.256;2023-04-26T08:57:17;7;6;
62054;PMS5003;48653;51.742;-1.256;2023-04-26T08:59:42;8;7;
62054;PMS5003;48653;51.742;-1.256;2023-04-26T09:02:07;5;5;
62054;PMS5003;48653;51.742;-1.256;2023-04-26T09:04:32;7;7;
62054;PMS5003;48653;51.742;-1.256;2023-04-26T09:06:58;7;4;
62054;PMS5003;48653;51.742;-1.256;2023-04-26T09:09:22;9;6;
62054;PMS5003;48653;51.742;-1.256;2023-04-26T09:11:52;3;3;
62054;PMS5003;48653;51.742;-1.256;2023-04-26T09:14:13;7;5;
62054;PMS5003;48653;51.742;-1.256;2023-04-26T09:16:38;8;6;
62054;PMS5003;48653;51.742;-1.256;2023-04-26T09:19:03;7;4;
62054;PMS5003;48653;51.742;-1.256;2023-04-26T09:21:28;3;3;
62054;PMS5003;48653;51.742;-1.256;2023-04-26T09:23:55;5;5;
62054;PMS5003;48653;51.742;-1.256;2023-04-26T09:26:18;4;3;
62054;PMS5003;48653;51.742;-1.256;2023-04-26T09:28:43;7;7;
62054;PMS5003;48653;51.742;-1.256;2023-04-26T09:31:09;8;5;
62054;PMS5003;48653;51.742;-1.256;2023-04-26T09:33:34;9;6;
62054;PMS5003;48653;51.742;-1.256;2023-04-26T09:36:09;6;4;
62054;PMS5003;48653;51.742;-1.256;2023-04-26T09:38:24;3;3;
62054;PMS5003;48653;51.742;-1.256;2023-04-26T09:40:50;7;5;
62054;PMS5003;48653;51.742;-1.256;2023-04-26T09:43:15;5;5;
62054;PMS5003;48653;51.742;-1.256;2023-04-26T09:45:42;5;5;
62054;PMS5003;48653;51.742;-1.256;2023-04-26T09:48:12;6;4;
62054;PMS5003;48653;51.742;-1.256;2023-04-26T09:50:31;9;6;
62054;PMS5003;48653;51.742;-1.256;2023-04-26T09:52:57;5;5;
62054;PMS5003;48653;51.742;-1.256;2023-04-26T09:55:26;7;6;
62054;PMS5003;48653;51.742;-1.256;2023-04-26T09:57:47;7;7;
62054;PMS5003;48653;51.742;-1.256;2023-04-26T10:00:13;8;4;
62054;PMS5003;48653;51.742;-1.256;2023-04-26T10:02:37;6;5;
62054;PMS5003;48653;51.742;-1.256;2023-04-26T10:05:03;5;5;
62054;PMS5003;48653;51.742;-1.256;2023-04-26T10:07:28;6;5;
62054;PMS5003;48653;51.742;-1.256;2023-04-26T10:09:53;9;6;
62054;PMS5003;48653;51.742;-1.256;2023-04-26T10:12:18;7;5;
62054;PMS5003;48653;51.742;-1.256;2023-04-26T10:14:44;6;5;
62054;PMS5003;48653;51.742;-1.256;2023-04-26T10:17:09;8;6;
62054;PMS5003;48653;51.742;-1.256;2023-04-26T10:19:34;6;6;
62054;PMS5003;48653;51.742;-1.256;2023-04-26T10:22:00;6;5;
62054;PMS5003;48653;51.742;-1.256;2023-04-26T10:24:25;10;7;
62054;PMS5003;48653;51.742;-1.256;2023-04-26T10:26:50;6;6;
62054;PMS5003;48653;51.742;-1.256;2023-04-26T10:29:15;5;5;
62054;PMS5003;48653;51.742;-1.256;2023-04-26T10:36:30;10;6;
62054;PMS5003;48653;51.742;-1.256;2023-04-26T10:41:27;8;7;
62054;PMS5003;48653;51.742;-1.256;2023-04-26T10:43:45;9;8;
62054;PMS5003;48653;51.742;-1.256;2023-04-26T10:48:37;5;5;
62054;PMS5003;48653;51.742;-1.256;2023-04-26T10:51:07;9;6;
62054;PMS5003;48653;51.742;-1.256;2023-04-26T10:53:27;6;6;
62054;PMS5003;48653;51.742;-1.256;2023-04-26T10:55:52;6;6;
62054;PMS5003;48653;51.742;-1.256;2023-04-26T10:58:26;7;7;
62054;PMS5003;48653;51.742;-1.256;2023-04-26T11:00:52;6;6;
62054;PMS5003;48653;51.742;-1.256;2023-04-26T11:03:09;10;6;
62054;PMS5003;48653;51.742;-1.256;2023-04-26T11:05:34;5;5;
62054;PMS5003;48653;51.742;-1.256;2023-04-26T11:08:02;8;8;
62054;PMS5003;48653;51.742;-1.256;2023-04-26T11:10:24;11;9;
62054;PMS5003;48653;51.742;-1.256;2023-04-26T11:15:15;7;7;
62054;PMS5003;48653;51.742;-1.256;2023-04-26T11:17:40;9;8;
62054;PMS5003;48653;51.742;-1.256;2023-04-26T11:20:08;10;10;
62054;PMS5003;48653;51.742;-1.256;2023-04-26T11:22:31;9;7;
62054;PMS5003;48653;51.742;-1.256;2023-04-26T11:24:58;9;9;
62054;PMS5003;48653;51.742;-1.256;2023-04-26T11:27:22;11;7;
62054;PMS5003;48653;51.742;-1.256;2023-04-26T11:29:47;7;5;
62054;PMS5003;48653;51.742;-1.256;2023-04-26T11:32:12;9;8;
62054;PMS5003;48653;51.742;-1.256;2023-04-26T11:34:37;8;7;
62054;PMS5003;48653;51.742;-1.256;2023-04-26T11:37:03;7;6;
62054;PMS5003;48653;51.742;-1.256;2023-04-26T11:39:27;9;6;
62054;PMS5003;48653;51.742;-1.256;2023-04-26T11:41:55;10;9;
62054;PMS5003;48653;51.742;-1.256;2023-04-26T11:44:18;12;9;
62054;PMS5003;48653;51.742;-1.256;2023-04-26T11:46:44;12;12;
62054;PMS5003;48653;51.742;-1.256;2023-04-26T11:49:09;13;11;
62054;PMS5003;48653;51.742;-1.256;2023-04-26T11:51:34;9;8;
62054;PMS5003;48653;51.742;-1.256;2023-04-26T11:54:00;9;9;
62054;PMS5003;48653;51.742;-1.256;2023-04-26T11:56:25;10;8;
62054;PMS5003;48653;51.742;-1.256;2023-04-26T11:58:51;7;7;
62054;PMS5003;48653;51.742;-1.256;2023-04-26T12:01:19;12;11;
62054;PMS5003;48653;51.742;-1.256;2023-04-26T12:03:42;7;7;
62054;PMS5003;48653;51.742;-1.256;2023-04-26T12:06:06;9;8;
62054;PMS5003;48653;51.742;-1.256;2023-04-26T12:08:31;13;11;
62054;PMS5003;48653;51.742;-1.256;2023-04-26T12:10:58;10;9;
62054;PMS5003;48653;51.742;-1.256;2023-04-26T12:13:22;13;11;
62054;PMS5003;48653;51.742;-1.256;2023-04-26T12:15:47;14;11;
62054;PMS5003;48653;51.742;-1.256;2023-04-26T12:18:12;15;11;
62054;PMS5003;48653;51.742;-1.256;2023-04-26T12:20:38;11;11;
62054;PMS5003;48653;51.742;-1.256;2023-04-26T12:23:04;11;8;
62054;PMS5003;48653;51.742;-1.256;2023-04-26T12:25:29;8;8;
62054;PMS5003;48653;51.742;-1.256;2023-04-26T12:27:54;10;10;
62054;PMS5003;48653;51.742;-1.256;2023-04-26T12:30:19;8;8;
62054;PMS5003;48653;51.742;-1.256;2023-04-26T12:32:44;13;11;
62054;PMS5003;48653;51.742;-1.256;2023-04-26T12:35:09;12;11;
62054;PMS5003;48653;51.742;-1.256;2023-04-26T12:37:35;10;10;
62054;PMS5003;48653;51.742;-1.256;2023-04-26T12:40:00;16;12;
62054;PMS5003;48653;51.742;-1.256;2023-04-26T12:42:26;13;10;
62054;PMS5003;48653;51.742;-1.256;2023-04-26T12:44:51;15;10;
62054;PMS5003;48653;51.742;-1.256;2023-04-26T12:47:16;14;11;
62054;PMS5003;48653;51.742;-1.256;2023-04-26T12:49:41;13;11;
62054;PMS5003;48653;51.742;-1.256;2023-04-26T12:52:06;11;10;
62054;PMS5003;48653;51.742;-1.256;2023-04-26T12:54:32;18;12;
62054;PMS5003;48653;51.742;-1.256;2023-04-26T12:56:57;10;10;
62054;PMS5003;48653;51.742;-1.256;2023-04-26T12:59:23;8;8;
62054;PMS5003;48653;51.742;-1.256;2023-04-26T13:01:49;11;9;
62054;PMS5003;48653;51.742;-1.256;2023-04-26T13:04:14;10;10;
62054;PMS5003;48653;51.742;-1.256;2023-04-26T13:06:39;14;12;
62054;PMS5003;48653;51.742;-1.256;2023-04-26T13:09:05;13;10;
62054;PMS5003;48653;51.742;-1.256;2023-04-26T13:11:30;9;8;
62054;PMS5003;48653;51.742;-1.256;2023-04-26T13:13:55;10;9;
62054;PMS5003;48653;51.742;-1.256;2023-04-26T13:16:20;11;11;
62054;PMS5003;48653;51.742;-1.256;2023-04-26T13:18:45;16;12;
62054;PMS5003;48653;51.742;-1.256;2023-04-26T13:21:11;11;9;
62054;PMS5003;48653;51.742;-1.256;2023-04-26T13:23:37;16;13;
62054;PMS5003;48653;51.742;-1.256;2023-04-26T13:26:02;11;9;
62054;PMS5003;48653;51.742;-1.256;2023-04-26T13:28:27;14;10;
62054;PMS5003;48653;51.742;-1.256;2023-04-26T13:30:52;16;12;
62054;PMS5003;48653;51.742;-1.256;2023-04-26T13:33:18;11;11;
62054;PMS5003;48653;51.742;-1.256;2023-04-26T13:35:43;11;11;
62054;PMS5003;48653;51.742;-1.256;2023-04-26T13:38:08;10;10;
62054;PMS5003;48653;51.742;-1.256;2023-04-26T13:40:34;11;8;
62054;PMS5003;48653;51.742;-1.256;2023-04-26T13:42:59;18;12;
62054;PMS5003;48653;51.742;-1.256;2023-04-26T13:45:24;10;8;
62054;PMS5003;48653;51.742;-1.256;2023-04-26T13:47:49;14;9;
62054;PMS5003;48653;51.742;-1.256;2023-04-26T13:50:15;10;8;
62054;PMS5003;48653;51.742;-1.256;2023-04-26T13:52:40;8;8;
62054;PMS5003;48653;51.742;-1.256;2023-04-26T13:55:05;15;10;
62054;PMS5003;48653;51.742;-1.256;2023-04-26T13:57:30;9;9;
62054;PMS5003;48653;51.742;-1.256;2023-04-26T13:59:55;11;9;
62054;PMS5003;48653;51.742;-1.256;2023-04-26T14:02:21;10;8;
62054;PMS5003;48653;51.742;-1.256;2023-04-26T14:04:46;13;10;
62054;PMS5003;48653;51.742;-1.256;2023-04-26T14:07:11;12;10;
62054;PMS5003;48653;51.742;-1.256;2023-04-26T14:09:37;11;9;
62054;PMS5003;48653;51.742;-1.256;2023-04-26T14:12:03;11;11;
62054;PMS5003;48653;51.742;-1.256;2023-04-26T14:14:29;10;8;
62054;PMS5003;48653;51.742;-1.256;2023-04-26T14:16:54;11;9;
62054;PMS5003;48653;51.742;-1.256;2023-04-26T14:19:19;11;10;
62054;PMS5003;48653;51.742;-1.256;2023-04-26T14:21:44;12;10;
62054;PMS5003;48653;51.742;-1.256;2023-04-26T14:24:10;12;10;
62054;PMS5003;48653;51.742;-1.256;2023-04-26T14:26:35;13;11;
62054;PMS5003;48653;51.742;-1.256;2023-04-26T14:29:00;16;9;
62054;PMS5003;48653;51.742;-1.256;2023-04-26T14:31:25;14;10;
62054;PMS5003;48653;51.742;-1.256;2023-04-26T14:33:50;8;8;
62054;PMS5003;48653;51.742;-1.256;2023-04-26T14:36:15;10;9;
62054;PMS5003;48653;51.742;-1.256;2023-04-26T14:38:41;15;11;
62054;PMS5003;48653;51.742;-1.256;2023-04-26T14:41:06;14;14;
62054;PMS5003;48653;51.742;-1.256;2023-04-26T14:43:31;10;10;
62054;PMS5003;48653;51.742;-1.256;2023-04-26T14:45:56;12;10;
62054;PMS5003;48653;51.742;-1.256;2023-04-26T14:48:22;10;8;
62054;PMS5003;48653;51.742;-1.256;2023-04-26T14:50:47;13;11;
62054;PMS5003;48653;51.742;-1.256;2023-04-26T14:53:13;12;11;
62054;PMS5003;48653;51.742;-1.256;2023-04-26T14:55:38;13;11;
62054;PMS5003;48653;51.742;-1.256;2023-04-26T14:58:03;8;8;
62054;PMS5003;48653;51.742;-1.256;2023-04-26T15:00:28;17;11;
62054;PMS5003;48653;51.742;-1.256;2023-04-26T15:02:53;9;9;
62054;PMS5003;48653;51.742;-1.256;2023-04-26T15:05:19;11;11;
62054;PMS5003;48653;51.742;-1.256;2023-04-26T15:07:44;11;10;
62054;PMS5003;48653;51.742;-1.256;2023-04-26T15:10:09;11;10;
62054;PMS5003;48653;51.742;-1.256;2023-04-26T15:12:35;13;11;
62054;PMS5003;48653;51.742;-1.256;2023-04-26T15:15:01;12;11;
62054;PMS5003;48653;51.742;-1.256;2023-04-26T15:17:26;12;9;
62054;PMS5003;48653;51.742;-1.256;2023-04-26T15:19:52;13;11;
62054;PMS5003;48653;51.742;-1.256;2023-04-26T15:22:17;12;11;
62054;PMS5003;48653;51.742;-1.256;2023-04-26T15:24:42;18;11;
62054;PMS5003;48653;51.742;-1.256;2023-04-26T15:27:07;11;9;
62054;PMS5003;48653;51.742;-1.256;2023-04-26T15:29:33;18;9;
62054;PMS5003;48653;51.742;-1.256;2023-04-26T15:31:58;11;10;
62054;PMS5003;48653;51.742;-1.256;2023-04-26T15:34:24;13;11;
62054;PMS5003;48653;51.742;-1.256;2023-04-26T15:36:50;12;10;
62054;PMS5003;48653;51.742;-1.256;2023-04-26T15:39:15;12;12;
62054;PMS5003;48653;51.742;-1.256;2023-04-26T15:41:40;13;12;
62054;PMS5003;48653;51.742;-1.256;2023-04-26T15:44:06;14;11;
62054;PMS5003;48653;51.742;-1.256;2023-04-26T15:46:31;13;10;
62054;PMS5003;48653;51.742;-1.256;2023-04-26T15:48:56;15;13;
62054;PMS5003;48653;51.742;-1.256;2023-04-26T15:51:21;9;8;
62054;PMS5003;48653;51.742;-1.256;2023-04-26T15:53:48;18;12;
62054;PMS5003;48653;51.742;-1.256;2023-04-26T15:56:13;16;15;
62054;PMS5003;48653;51.742;-1.256;2023-04-26T15:58:38;10;9;
62054;PMS5003;48653;51.742;-1.256;2023-04-26T16:01:03;14;11;
62054;PMS5003;48653;51.742;-1.256;2023-04-26T16:03:29;9;9;
62054;PMS5003;48653;51.742;-1.256;2023-04-26T16:05:55;12;11;
62054;PMS5003;48653;51.742;-1.256;2023-04-26T16:08:20;14;11;
62054;PMS5003;48653;51.742;-1.256;2023-04-26T16:10:45;11;9;
62054;PMS5003;48653;51.742;-1.256;2023-04-26T16:13:11;14;14;
62054;PMS5003;48653;51.742;-1.256;2023-04-26T16:15:36;11;11;